Time;durP1;ratioP1;P1;durP2;ratioP2;P2;SDS_P1;SDS_P2;PMS_P1;PMS_P2;Temp;Humidity;BMP_temperature;BMP_pressure;BME280_temperature;BME280_humidity;BME280_pressure;Samples;Min_cycle;Max_cycle;Signal;HPM_P1;HPM_P2
2022/01/19 00:02:17;;;;;;;4.63;1.90;;;;;;;-4.28;59.44;99974.84;4906627;29;20079;-78
2022/01/19 00:04:43;;;;;;;5.47;1.88;;;;;;;-4.15;59.81;99998.41;4928351;29;20075;-80
2022/01/19 00:07:09;;;;;;;6.18;1.88;;;;;;;-4.16;60.08;99989.03;4941867;29;20059;-77
2022/01/19 00:09:35;;;;;;;3.42;1.67;;;;;;;-4.16;59.26;99989.03;4934265;29;20107;-79
2022/01/19 00:12:01;;;;;;;5.28;2.08;;;;;;;-4.12;59.29;99985.88;4923684;29;20047;-78
2022/01/19 00:14:30;;;;;;;9.02;1.85;;;;;;;-4.18;59.20;99986.38;4923704;29;20044;-78
2022/01/19 00:16:55;;;;;;;5.22;2.05;;;;;;;-4.17;59.58;99977.13;4930222;29;20418;-79
2022/01/19 00:19:21;;;;;;;2.38;1.67;;;;;;;-4.36;59.70;99963.44;4937618;29;20048;-78
2022/01/19 00:21:47;;;;;;;3.95;1.50;;;;;;;-4.31;59.35;99976.38;4921870;29;20048;-78
2022/01/19 00:24:13;;;;;;;3.15;2.03;;;;;;;-4.49;59.46;99949.19;4921737;29;20047;-79
2022/01/19 00:26:39;;;;;;;4.55;1.77;;;;;;;-4.31;59.56;99979.81;4920814;29;20046;-79
2022/01/19 00:29:04;;;;;;;3.28;1.65;;;;;;;-4.43;59.47;99961.34;4905386;29;20060;-79
2022/01/19 00:31:30;;;;;;;2.33;1.58;;;;;;;-4.41;59.02;99980.94;4889222;29;20048;-77
2022/01/19 00:33:56;;;;;;;3.00;1.60;;;;;;;-4.62;59.55;99946.75;4904073;29;20040;-79
2022/01/19 00:36:22;;;;;;;4.05;1.73;;;;;;;-4.56;59.62;99958.16;4922815;29;20036;-79
2022/01/19 00:38:48;;;;;;;2.30;1.50;;;;;;;-4.32;59.15;99993.31;4921920;29;20053;-78
2022/01/19 00:41:13;;;;;;;3.45;2.03;;;;;;;-4.44;59.17;99964.66;4892108;29;20048;-77
2022/01/19 00:43:39;;;;;;;6.53;1.63;;;;;;;-4.35;59.40;99977.00;4920770;29;20039;-79
2022/01/19 00:46:05;;;;;;;4.45;1.40;;;;;;;-4.43;59.29;99972.41;4910361;29;20044;-77
2022/01/19 00:48:31;;;;;;;3.60;1.75;;;;;;;-4.52;59.10;99955.78;4929351;29;20051;-80
2022/01/19 00:50:59;;;;;;;3.35;1.92;;;;;;;-4.49;59.21;99955.91;4910467;29;20044;-78
2022/01/19 00:53:25;;;;;;;3.28;1.70;;;;;;;-4.48;59.35;99955.13;4921367;29;20368;-78
2022/01/19 00:55:52;;;;;;;4.68;1.80;;;;;;;-4.32;59.68;99967.88;4919888;29;20047;-78
2022/01/19 00:58:18;;;;;;;2.97;1.92;;;;;;;-4.26;59.17;99952.09;4920096;29;20129;-78
2022/01/19 01:00:44;;;;;;;3.30;1.52;;;;;;;-4.22;59.17;99961.63;4904143;29;20084;-78
2022/01/19 01:03:10;;;;;;;3.88;1.80;;;;;;;-4.40;59.29;99943.72;4919626;29;20048;-77
2022/01/19 01:05:36;;;;;;;4.65;1.67;;;;;;;-4.43;59.36;99941.00;4921072;29;20048;-78
2022/01/19 01:08:03;;;;;;;2.70;1.52;;;;;;;-4.29;59.30;99962.94;4909842;29;20419;-79
2022/01/19 01:10:30;;;;;;;4.25;1.60;;;;;;;-4.36;58.98;99952.38;4902682;29;20495;-78
2022/01/19 01:13:06;;;;;;;4.05;1.80;;;;;;;-4.41;59.16;99957.22;4919045;29;20047;-77
2022/01/19 01:18:20;;;;;;;3.80;1.92;;;;;;;-4.51;58.96;99942.25;4921463;29;20055;-79
2022/01/19 01:20:53;;;;;;;5.93;1.90;;;;;;;-4.36;59.40;99960.88;4894298;29;20138;-79
2022/01/19 01:23:22;;;;;;;3.88;1.65;;;;;;;-4.42;59.07;99953.81;4903065;29;20048;-77
2022/01/19 01:25:50;;;;;;;4.28;1.70;;;;;;;-4.35;59.09;99951.59;4898672;29;20050;-78
2022/01/19 01:28:17;;;;;;;4.72;2.20;;;;;;;-4.37;59.24;99951.50;4922868;29;20072;-78
2022/01/19 01:30:44;;;;;;;2.25;1.50;;;;;;;-4.60;58.85;99925.75;4922372;29;20032;-77
2022/01/19 01:33:11;;;;;;;4.75;1.83;;;;;;;-4.39;58.52;99955.63;4906366;29;20048;-79
2022/01/19 01:35:38;;;;;;;5.15;1.95;;;;;;;-4.46;59.16;99945.94;4917921;29;20516;-79
2022/01/19 01:38:05;;;;;;;5.95;2.17;;;;;;;-4.46;58.96;99948.47;4895418;29;20040;-77
2022/01/19 01:40:34;;;;;;;4.55;1.83;;;;;;;-4.59;58.66;99941.84;4903287;29;20050;-78
2022/01/19 01:43:03;;;;;;;5.93;1.77;;;;;;;-4.59;58.64;99940.19;4903098;29;20087;-78
2022/01/19 01:45:32;;;;;;;4.90;2.08;;;;;;;-4.59;58.95;99931.69;4920736;29;20055;-79
2022/01/19 01:53:47;;;;;;;4.93;2.40;;;;;;;-4.84;59.22;99964.25;4888298;29;20532;-79
2022/01/19 01:56:16;;;;;;;4.00;2.10;;;;;;;-4.82;59.21;99959.25;4917558;29;20535;-80
2022/01/19 01:58:46;;;;;;;2.75;1.85;;;;;;;-4.80;59.26;99952.59;4889345;29;20135;-80
2022/01/19 02:01:27;;;;;;;3.38;1.58;;;;;;;-5.03;59.00;99928.47;4906731;29;20036;-78
2022/01/19 02:03:53;;;;;;;4.13;1.75;;;;;;;-4.85;58.98;99961.59;4903796;29;20044;-79
2022/01/19 02:22:02;;;;;;;4.70;1.60;;;;;;;-5.79;58.96;99937.72;4916690;29;20130;-80
2022/01/19 02:24:32;;;;;;;4.15;1.85;;;;;;;-5.55;58.93;99969.50;4904614;29;20044;-80
2022/01/19 02:40:44;;;;;;;2.92;1.90;;;;;;;-5.73;59.06;99992.13;4927872;29;20104;-78
2022/01/19 02:43:20;;;;;;;4.28;1.77;;;;;;;-5.71;59.39;99988.00;4908548;29;20083;-81
2022/01/19 02:51:14;;;;;;;4.03;1.83;;;;;;;-5.53;58.81;99998.38;4913804;29;20130;-77
2022/01/19 02:53:40;;;;;;;6.28;2.25;;;;;;;-5.53;59.09;99999.25;4925800;29;20298;-78
2022/01/19 02:56:11;;;;;;;4.88;2.08;;;;;;;-5.46;59.55;100011.50;4894176;29;20055;-79
2022/01/19 02:58:52;;;;;;;4.20;1.98;;;;;;;-5.43;59.28;100017.53;4897293;29;20130;-79
2022/01/19 03:09:22;;;;;;;4.78;2.05;;;;;;;-5.27;59.35;100021.84;4912115;29;20051;-79
2022/01/19 03:11:49;;;;;;;5.80;1.67;;;;;;;-5.23;59.18;100021.22;4913869;29;20043;-79
2022/01/19 03:14:15;;;;;;;6.97;2.20;;;;;;;-5.17;59.23;100016.50;4898201;29;20047;-79
2022/01/19 03:16:42;;;;;;;3.78;2.30;;;;;;;-5.07;59.27;100007.78;4896045;29;20505;-78
2022/01/19 03:19:09;;;;;;;4.65;2.40;;;;;;;-5.17;59.66;99976.78;4912301;29;20050;-77
2022/01/19 03:21:35;;;;;;;4.13;2.20;;;;;;;-4.90;59.29;100004.50;4914848;29;20054;-77
2022/01/19 03:24:02;;;;;;;4.00;2.05;;;;;;;-4.81;59.49;100005.84;4899903;29;20496;-78
2022/01/19 03:26:28;;;;;;;3.58;2.17;;;;;;;-4.82;59.25;100001.53;4902606;29;20051;-79
2022/01/19 03:29:16;;;;;;;4.82;2.17;;;;;;;-4.84;59.21;99989.63;4916999;29;20066;-80
2022/01/19 03:31:42;;;;;;;4.93;2.40;;;;;;;-4.81;59.35;100005.84;4929517;29;20071;-79
2022/01/19 03:34:11;;;;;;;3.63;2.35;;;;;;;-4.88;59.16;100002.94;4910702;29;20106;-81
2022/01/19 03:36:38;;;;;;;4.18;2.30;;;;;;;-4.86;58.84;99988.66;4899777;29;20046;-78
2022/01/19 03:39:05;;;;;;;4.65;2.28;;;;;;;-4.98;58.92;99967.69;4912409;29;20042;-80
2022/01/19 03:41:31;;;;;;;4.35;2.35;;;;;;;-4.89;59.35;99988.50;4909892;29;20088;-80
2022/01/19 03:44:00;;;;;;;5.15;2.10;;;;;;;-4.93;59.38;99995.88;4928031;29;20124;-82
2022/01/19 03:46:33;;;;;;;7.63;2.60;;;;;;;-4.98;59.42;99988.00;4904103;29;20041;-77
2022/01/19 03:49:09;;;;;;;3.65;2.22;;;;;;;-5.05;59.04;99974.06;4897805;29;20395;-78
2022/01/19 03:51:41;;;;;;;5.72;2.58;;;;;;;-5.00;58.96;99995.50;4932820;29;20508;-81
2022/01/19 03:54:07;;;;;;;3.95;2.17;;;;;;;-4.90;59.49;99999.44;4927601;29;20039;-81
2022/01/19 03:56:34;;;;;;;4.15;2.45;;;;;;;-4.95;59.02;99997.44;4885179;29;20040;-79
2022/01/19 03:59:00;;;;;;;2.92;2.08;;;;;;;-4.97;59.35;100007.53;4896379;29;20103;-80
2022/01/19 04:01:26;;;;;;;3.00;2.17;;;;;;;-5.07;58.93;99987.47;4924872;29;20048;-79
2022/01/19 04:06:41;;;;;;;4.43;2.30;;;;;;;-5.42;59.57;99987.19;4910365;29;20044;-80
2022/01/19 04:09:07;;;;;;;3.97;1.98;;;;;;;-5.65;59.33;99975.72;4897343;29;20072;-79
2022/01/19 04:11:32;;;;;;;7.13;2.42;;;;;;;-5.86;59.26;99963.50;4894597;29;20090;-80
2022/01/19 04:16:25;;;;;;;4.07;2.40;;;;;;;-5.76;59.68;100026.63;4913301;29;20181;-82
2022/01/19 04:18:59;;;;;;;3.88;2.33;;;;;;;-5.84;59.83;100020.22;4873113;29;20075;-80
2022/01/19 04:21:25;;;;;;;3.42;2.13;;;;;;;-6.16;59.41;99981.19;4894196;29;20126;-82
2022/01/19 04:23:52;;;;;;;3.80;2.25;;;;;;;-6.07;59.58;100018.88;4890117;29;20040;-78
2022/01/19 04:26:18;;;;;;;3.90;2.20;;;;;;;-6.07;59.66;100041.69;4905385;29;20249;-78
2022/01/19 04:28:44;;;;;;;3.67;2.05;;;;;;;-6.33;59.49;100014.75;4902786;29;20154;-78
2022/01/19 04:31:10;;;;;;;5.80;2.60;;;;;;;-6.42;59.75;100007.44;4917676;29;20099;-80
2022/01/19 04:33:41;;;;;;;3.80;2.17;;;;;;;-6.23;59.93;100029.72;4921241;29;20314;-80
2022/01/19 04:36:34;;;;;;;4.50;2.03;;;;;;;-6.24;60.14;100031.38;4922232;29;20118;-79
2022/01/19 04:39:23;;;;;;;4.00;2.20;;;;;;;-6.32;59.78;100036.75;4922507;29;20150;-80
2022/01/19 04:45:09;;;;;;;4.25;1.95;;;;;;;-6.63;60.06;99994.31;4907533;29;20044;-80
2022/01/19 04:48:07;;;;;;;6.13;2.20;;;;;;;-6.54;60.34;100007.56;4923563;29;20057;-79
2022/01/19 05:01:44;;;;;;;7.50;2.97;;;;;;;-6.72;59.55;100048.63;4915761;29;20103;-80
2022/01/19 05:04:29;;;;;;;6.63;2.97;;;;;;;-6.83;60.19;100049.59;4917272;29;20066;-78
2022/01/19 05:07:17;;;;;;;7.57;3.55;;;;;;;-7.14;59.47;100018.13;4913157;29;20048;-81
2022/01/19 05:15:08;;;;;;;6.78;3.00;;;;;;;-7.48;60.06;100000.69;4925380;29;20134;-81
2022/01/19 05:17:36;;;;;;;7.85;3.33;;;;;;;-7.61;59.91;100013.31;4926845;29;20403;-79
2022/01/19 05:20:04;;;;;;;4.17;2.63;;;;;;;-7.56;60.38;100005.25;4909700;29;20044;-79
2022/01/19 05:22:30;;;;;;;9.37;2.93;;;;;;;-7.38;60.61;100012.31;4929110;29;20107;-78
2022/01/19 05:24:59;;;;;;;5.83;3.10;;;;;;;-7.49;60.64;99982.91;4916035;29;20056;-79
2022/01/19 05:27:30;;;;;;;6.57;2.65;;;;;;;-7.21;60.74;99999.91;4914853;29;20055;-78
2022/01/19 05:29:56;;;;;;;4.30;2.28;;;;;;;-7.19;60.69;100003.44;4896301;29;20411;-80
2022/01/19 05:32:22;;;;;;;5.82;2.90;;;;;;;-7.16;60.72;99993.47;4911223;29;20134;-79
2022/01/19 05:34:48;;;;;;;3.83;2.47;;;;;;;-7.12;60.62;99987.84;4888998;29;20048;-79
2022/01/19 05:37:28;;;;;;;6.22;2.28;;;;;;;-7.27;61.04;99963.31;4926199;29;20107;-80
2022/01/19 05:40:19;;;;;;;5.03;2.40;;;;;;;-6.97;61.02;99995.56;4914599;29;20047;-81
2022/01/19 05:42:52;;;;;;;6.70;2.47;;;;;;;-7.12;61.18;99970.13;4907204;29;20142;-81
2022/01/19 05:45:18;;;;;;;3.15;1.92;;;;;;;-7.04;60.95;99978.22;4908720;29;20047;-80
2022/01/19 05:47:45;;;;;;;5.00;2.15;;;;;;;-7.13;61.08;99968.38;4892353;29;20035;-81
2022/01/19 05:50:15;;;;;;;8.68;2.55;;;;;;;-7.24;61.20;99947.47;4908603;29;20565;-80
2022/01/19 05:52:46;;;;;;;3.88;2.00;;;;;;;-6.81;60.93;100002.47;4912678;29;20044;-80
2022/01/19 05:55:12;;;;;;;4.13;2.15;;;;;;;-6.67;61.20;100013.50;4924673;29;20043;-80
2022/01/19 05:57:39;;;;;;;4.00;2.20;;;;;;;-6.47;60.75;99975.88;4907628;29;20112;-80
2022/01/19 06:00:06;;;;;;;5.68;2.38;;;;;;;-5.65;61.32;100001.91;4907794;29;20062;-80
2022/01/19 06:02:50;;;;;;;5.55;2.67;;;;;;;-4.94;60.67;99984.81;4892294;29;20035;-81
2022/01/19 06:05:24;;;;;;;4.60;2.70;;;;;;;-4.26;59.92;99958.03;4913983;29;20043;-79
2022/01/19 06:11:14;;;;;;;5.40;2.35;;;;;;;-2.68;59.91;99954.81;4903850;29;20791;-80
2022/01/19 06:13:42;;;;;;;4.88;2.00;;;;;;;-2.09;59.01;99920.88;4900284;29;20028;-80
2022/01/19 06:16:09;;;;;;;6.22;2.17;;;;;;;-0.92;58.38;99961.53;4903882;29;20060;-83
2022/01/19 06:18:40;;;;;;;4.65;2.13;;;;;;;0.02;58.43;99952.25;4906052;29;20419;-79
2022/01/19 06:21:08;;;;;;;3.35;2.30;;;;;;;0.62;56.79;99913.38;4882843;29;20052;-80
2022/01/19 06:23:39;;;;;;;3.58;2.20;;;;;;;1.55;56.98;99907.69;4907363;29;20040;-79
2022/01/19 06:26:13;;;;;;;2.97;2.35;;;;;;;2.45;54.95;99939.25;4882612;29;20032;-80
2022/01/19 06:28:40;;;;;;;7.57;2.65;;;;;;;2.96;54.50;99926.81;4892871;29;20055;-82
2022/01/19 06:31:06;;;;;;;4.25;2.67;;;;;;;3.50;53.26;99917.75;4886847;29;20044;-81
2022/01/19 06:33:33;;;;;;;4.47;2.97;;;;;;;3.79;52.58;99849.69;4921189;29;20054;-79
2022/01/19 06:35:59;;;;;;;9.50;3.50;;;;;;;4.65;51.56;99865.84;4902820;29;20575;-80
2022/01/19 06:38:43;;;;;;;7.38;4.10;;;;;;;5.16;51.22;99863.16;4920788;29;20047;-81
2022/01/19 06:41:19;;;;;;;8.88;4.10;;;;;;;5.78;49.42;99879.47;4922296;29;20055;-81
2022/01/19 06:43:46;;;;;;;6.43;4.32;;;;;;;6.65;50.05;99898.47;4901211;29;20449;-80
2022/01/19 06:46:12;;;;;;;4.88;3.75;;;;;;;6.88;48.26;99833.97;4921465;29;20099;-80
2022/01/19 06:48:41;;;;;;;6.47;4.60;;;;;;;7.72;47.25;99888.81;4922434;29;20051;-82
2022/01/19 06:51:10;;;;;;;7.50;4.50;;;;;;;8.37;46.44;99936.50;4935394;29;20040;-79
2022/01/19 06:53:42;;;;;;;6.00;4.18;;;;;;;7.93;43.83;99859.50;4913625;29;20047;-80
2022/01/19 06:56:20;;;;;;;8.45;4.78;;;;;;;8.17;44.81;99861.28;4931278;29;20075;-80
2022/01/19 06:58:48;;;;;;;7.65;4.50;;;;;;;9.00;43.26;99909.78;4925722;29;20051;-82
2022/01/19 07:01:23;;;;;;;10.30;4.53;;;;;;;9.66;42.83;99907.94;4928851;29;20078;-84
2022/01/19 07:04:14;;;;;;;7.95;4.07;;;;;;;10.39;42.21;99907.63;4925439;29;20055;-82
2022/01/19 07:06:47;;;;;;;7.28;3.92;;;;;;;10.27;40.78;99782.81;4921477;29;20063;-82
2022/01/19 07:09:34;;;;;;;6.55;4.43;;;;;;;11.14;39.91;99817.59;4922114;29;20068;-83
2022/01/19 07:12:00;;;;;;;5.85;3.95;;;;;;;11.93;38.34;99867.03;4920972;29;20072;-82
2022/01/19 07:14:26;;;;;;;8.10;4.32;;;;;;;12.58;38.07;99889.63;4889092;29;20050;-81
2022/01/19 07:16:55;;;;;;;6.43;4.65;;;;;;;13.08;36.88;99882.69;4931933;29;20090;-80
2022/01/19 07:19:21;;;;;;;8.55;5.38;;;;;;;13.35;35.62;99890.91;4907306;29;20051;-80
2022/01/19 07:21:50;;;;;;;9.45;4.75;;;;;;;13.42;35.15;99838.56;4912633;29;20588;-82
2022/01/19 07:24:16;;;;;;;8.30;4.78;;;;;;;14.06;34.25;99865.09;4899396;29;20107;-84
2022/01/19 07:26:49;;;;;;;6.82;4.60;;;;;;;14.06;33.11;99879.94;4931227;29;20633;-81
2022/01/19 07:29:22;;;;;;;8.57;4.40;;;;;;;13.79;32.53;99814.25;4929979;29;20060;-80
2022/01/19 07:31:55;;;;;;;5.00;4.47;;;;;;;14.28;32.31;99807.91;4930248;29;20048;-80
2022/01/19 07:34:21;;;;;;;10.27;5.25;;;;;;;14.77;31.19;99810.22;4932382;29;20047;-82
2022/01/19 07:36:47;;;;;;;7.53;4.50;;;;;;;15.27;30.18;99867.41;4929204;29;20044;-81
2022/01/19 07:39:15;;;;;;;7.28;4.00;;;;;;;15.09;30.20;99824.22;4893358;29;20043;-81
2022/01/19 07:41:41;;;;;;;7.38;3.80;;;;;;;15.46;29.75;99811.84;4910566;29;20044;-81
2022/01/19 07:44:27;;;;;;;7.00;3.80;;;;;;;16.34;28.39;99834.56;4924246;29;20569;-79
2022/01/19 07:47:12;;;;;;;5.85;3.70;;;;;;;16.75;28.00;99792.09;4928849;29;21206;-80
2022/01/19 07:49:57;;;;;;;7.50;3.60;;;;;;;17.10;27.34;99755.84;4924990;29;20070;-81
2022/01/19 07:52:49;;;;;;;9.02;4.70;;;;;;;17.33;26.91;99735.72;4892834;29;20515;-82
2022/01/19 07:55:34;;;;;;;7.75;3.90;;;;;;;18.00;26.39;99832.25;4926873;29;20079;-80
2022/01/19 07:58:18;;;;;;;10.40;4.68;;;;;;;18.25;25.84;99839.19;4925232;29;20143;-81
2022/01/19 08:00:47;;;;;;;5.13;3.63;;;;;;;18.00;25.42;99842.78;4908316;29;20134;-82
2022/01/19 08:03:35;;;;;;;6.10;4.28;;;;;;;17.60;25.16;99831.13;4925259;29;20042;-79
2022/01/19 08:06:08;;;;;;;8.13;4.40;;;;;;;17.34;24.96;99785.59;4914471;29;20059;-83
2022/01/19 08:08:37;;;;;;;8.27;4.70;;;;;;;17.38;24.45;99795.09;4929846;29;20571;-81
2022/01/19 08:11:04;;;;;;;6.57;4.50;;;;;;;16.79;24.60;99744.63;4930458;29;20050;-82
2022/01/19 08:13:34;;;;;;;9.47;4.10;;;;;;;17.34;24.47;99816.31;4926649;29;20603;-81
2022/01/19 08:16:01;;;;;;;12.70;5.63;;;;;;;17.19;23.88;99817.72;4911819;29;20042;-79
2022/01/19 08:18:27;;;;;;;9.82;5.40;;;;;;;17.24;24.10;99827.16;4912687;29;20050;-78
2022/01/19 08:20:53;;;;;;;10.10;5.22;;;;;;;17.57;24.31;99807.56;4918553;29;20392;-79
2022/01/19 08:23:24;;;;;;;9.40;5.70;;;;;;;17.86;23.85;99821.38;4931848;29;20082;-81
2022/01/19 08:25:55;;;;;;;;;;;;;;;17.75;23.07;99821.81;4917495;29;20048;-80
2022/01/19 08:28:21;;;;;;;13.00;6.20;;;;;;;17.36;24.35;99796.94;4924942;28;20031;-80
2022/01/19 08:30:53;;;;;;;10.32;5.30;;;;;;;17.14;23.33;99812.66;4903714;29;20058;-81
2022/01/19 08:33:38;;;;;;;9.70;5.35;;;;;;;16.77;24.16;99799.00;4935513;29;20044;-81
2022/01/19 08:36:05;;;;;;;7.18;4.88;;;;;;;16.64;23.70;99792.47;4913096;29;20020;-80
2022/01/19 08:38:34;;;;;;;10.85;4.78;;;;;;;16.93;23.32;99816.84;4942917;29;20044;-82
2022/01/19 08:41:13;;;;;;;7.13;4.30;;;;;;;17.06;23.12;99788.41;4903947;29;20172;-80
2022/01/19 08:43:41;;;;;;;8.82;4.63;;;;;;;17.14;23.01;99808.22;4929368;29;20121;-79
2022/01/19 08:46:08;;;;;;;9.70;3.90;;;;;;;17.33;22.57;99823.34;4912688;29;20040;-80
2022/01/19 08:48:53;;;;;;;7.88;3.72;;;;;;;16.79;22.15;99805.06;4928921;29;20095;-80
2022/01/19 08:51:44;;;;;;;6.80;3.42;;;;;;;16.35;22.49;99789.88;4901166;29;20039;-80
2022/01/19 08:54:15;;;;;;;6.75;3.05;;;;;;;16.16;22.36;99797.50;4899839;29;20111;-78
2022/01/19 08:56:54;;;;;;;6.03;3.35;;;;;;;16.22;22.26;99810.41;4914366;29;20194;-78
2022/01/19 08:59:23;;;;;;;7.18;3.65;;;;;;;15.60;21.87;99741.47;4930713;29;20048;-78
2022/01/19 09:01:49;;;;;;;4.25;3.30;;;;;;;16.21;21.92;99816.59;4930636;29;20136;-81
2022/01/19 09:04:15;;;;;;;4.40;3.30;;;;;;;16.46;22.26;99781.63;4929141;29;20393;-79
2022/01/19 09:06:41;;;;;;;6.75;3.83;;;;;;;16.71;22.33;99807.97;4927824;29;20044;-79
2022/01/19 09:09:07;;;;;;;8.63;4.40;;;;;;;16.76;21.61;99762.28;4928845;29;20083;-80
2022/01/19 09:11:33;;;;;;;7.75;4.35;;;;;;;16.93;21.55;99794.06;4932777;29;20035;-79
2022/01/19 09:14:00;;;;;;;7.28;4.47;;;;;;;16.58;21.71;99795.28;4901899;29;20293;-79
2022/01/19 09:16:26;;;;;;;6.13;4.07;;;;;;;16.64;21.69;99787.22;4938583;29;20134;-79
2022/01/19 09:18:52;;;;;;;7.03;4.78;;;;;;;16.94;21.10;99793.16;4909207;29;20044;-81
2022/01/19 09:21:18;;;;;;;10.00;5.22;;;;;;;17.79;21.66;99780.44;4933633;29;20119;-78
2022/01/19 09:23:44;;;;;;;8.25;5.28;;;;;;;18.68;20.93;99773.34;4930525;29;20416;-79
2022/01/19 09:26:09;;;;;;;6.10;4.45;;;;;;;19.06;20.98;99780.53;4931426;29;20118;-79
2022/01/19 09:28:35;;;;;;;6.05;4.53;;;;;;;19.14;20.26;99738.84;4924378;29;20060;-78
2022/01/19 09:31:04;;;;;;;5.20;3.97;;;;;;;19.25;20.44;99733.94;4926816;29;20084;-79
2022/01/19 09:33:31;;;;;;;7.65;4.57;;;;;;;19.65;20.63;99733.81;4913258;29;21387;-78
2022/01/19 09:38:31;;;;;;;6.70;4.38;;;;;;;19.81;21.97;99747.16;4935405;29;20040;-81
2022/01/19 09:41:05;;;;;;;5.53;3.72;;;;;;;19.53;21.76;99657.91;4922324;29;20047;-81
2022/01/19 09:43:33;;;;;;;6.10;4.25;;;;;;;20.42;21.48;99749.53;4932590;29;20044;-80
2022/01/19 09:46:00;;;;;;;5.50;4.18;;;;;;;20.82;21.11;99741.38;4893530;29;20156;-78
2022/01/19 09:48:28;;;;;;;6.18;4.60;;;;;;;21.22;20.19;99749.81;4930523;29;20054;-80
2022/01/19 09:50:56;;;;;;;4.97;4.20;;;;;;;21.00;21.00;99739.50;4930741;29;20040;-80
2022/01/19 09:53:22;;;;;;;5.50;4.10;;;;;;;20.82;20.53;99749.28;4929718;29;20350;-80
2022/01/19 09:55:48;;;;;;;5.03;3.70;;;;;;;20.21;19.60;99743.50;4930093;29;20526;-81
2022/01/19 09:58:17;;;;;;;6.85;4.07;;;;;;;18.80;19.79;99737.69;4935185;29;20050;-80
2022/01/19 10:00:43;;;;;;;4.82;3.33;;;;;;;17.84;20.45;99737.25;4940757;28;20598;-79
2022/01/19 10:03:26;;;;;;;6.05;3.60;;;;;;;16.69;20.57;99772.13;4939576;29;20076;-79
2022/01/19 10:06:09;;;;;;;6.18;3.60;;;;;;;15.12;21.08;99757.72;4940714;29;20054;-79
2022/01/19 10:08:39;;;;;;;5.10;3.53;;;;;;;14.76;21.75;99782.31;4935965;29;20110;-80
2022/01/19 10:11:05;;;;;;;4.90;3.70;;;;;;;14.33;22.24;99784.22;4947445;29;20050;-79
2022/01/19 10:17:00;;;;;;;6.70;4.32;;;;;;;13.77;22.47;99795.13;4939007;29;20031;-78
2022/01/19 10:19:42;;;;;;;7.97;4.32;;;;;;;11.99;22.79;99786.16;4932236;29;20118;-78
2022/01/19 10:22:25;;;;;;;6.80;3.95;;;;;;;9.85;23.60;99817.75;4929836;29;20047;-78
2022/01/19 10:25:06;;;;;;;31.00;6.15;;;;;;;8.35;24.63;99818.97;4928988;29;20100;-79
2022/01/19 10:27:52;;;;;;;9.35;5.20;;;;;;;7.10;26.54;99832.41;4927369;29;20056;-80
2022/01/19 10:30:24;;;;;;;9.95;4.43;;;;;;;6.13;27.22;99846.28;4931766;29;20070;-80
2022/01/19 10:33:20;;;;;;;9.95;4.10;;;;;;;5.35;28.57;99836.78;4913792;29;20032;-78
2022/01/19 10:35:58;;;;;;;6.47;4.57;;;;;;;3.59;29.69;99695.78;4895742;29;20048;-79
2022/01/19 10:39:29;;;;;;;9.55;4.30;;;;;;;3.74;30.88;99826.47;4912279;29;20269;-79
2022/01/19 10:42:51;;;;;;;7.00;3.28;;;;;;;3.18;31.34;99827.91;4906802;29;20079;-79
2022/01/19 10:45:17;;;;;;;6.55;3.55;;;;;;;2.93;32.46;99822.22;4918054;29;20043;-80
2022/01/19 10:47:49;;;;;;;6.93;4.28;;;;;;;2.38;32.50;99776.41;4904550;29;20046;-79
2022/01/19 10:50:36;;;;;;;9.32;4.55;;;;;;;2.23;33.16;99729.84;4942479;29;20064;-80
2022/01/19 10:53:04;;;;;;;7.30;3.85;;;;;;;2.47;33.34;99801.44;4918585;29;20051;-78
2022/01/19 10:55:51;;;;;;;8.30;3.97;;;;;;;2.39;33.84;99803.84;4902731;29;20048;-79
2022/01/19 10:58:16;;;;;;;7.20;3.60;;;;;;;2.26;34.37;99788.97;4935440;29;20044;-78
2022/01/19 11:00:51;;;;;;;7.13;3.85;;;;;;;2.23;34.58;99806.88;4935965;29;20051;-79
2022/01/19 11:03:28;;;;;;;7.88;4.20;;;;;;;2.20;34.63;99793.94;4929337;29;20126;-78
2022/01/19 11:05:56;;;;;;;6.80;3.80;;;;;;;2.09;34.33;99778.28;4930074;29;20578;-79
2022/01/19 11:08:24;;;;;;;7.20;3.95;;;;;;;1.98;34.85;99813.94;4929686;29;20546;-79
2022/01/19 11:10:53;;;;;;;6.88;3.80;;;;;;;1.80;35.35;99815.19;4914124;29;20126;-77
2022/01/19 11:15:53;;;;;;;9.02;4.03;;;;;;;1.52;36.00;99811.00;4917266;29;20076;-78
2022/01/19 11:18:21;;;;;;;7.68;3.60;;;;;;;1.19;36.23;99779.31;4931330;29;20095;-80
2022/01/19 11:20:49;;;;;;;7.43;3.63;;;;;;;1.11;36.27;99785.03;4931966;29;20193;-79
2022/01/19 11:23:52;;;;;;;5.50;2.97;;;;;;;0.94;36.81;99802.50;4898114;29;20583;-78
2022/01/19 11:26:22;;;;;;;;;;;;;;;0.68;36.31;99795.72;4929859;29;20591;-77
2022/01/19 11:28:50;;;;;;;5.88;3.03;;;;;;;0.54;37.23;99797.88;4937603;29;19982;-81
2022/01/19 11:31:40;;;;;;;6.97;3.38;;;;;;;-0.03;36.88;99714.16;4931049;29;20070;-81
2022/01/19 11:34:06;;;;;;;15.77;6.65;;;;;;;0.19;36.93;99755.78;4930790;29;20090;-78
2022/01/19 11:36:42;;;;;;;7.22;3.50;;;;;;;0.35;37.23;99785.28;4917374;29;20047;-77
2022/01/19 11:39:09;;;;;;;8.82;3.97;;;;;;;0.24;37.63;99773.03;4903194;29;20042;-80
2022/01/19 11:41:46;;;;;;;7.85;4.43;;;;;;;-0.17;37.94;99735.00;4936577;29;20114;-80
2022/01/19 11:44:38;;;;;;;6.18;3.40;;;;;;;-0.02;38.58;99780.72;4893577;29;20036;-80
2022/01/19 11:47:13;;;;;;;9.48;4.28;;;;;;;-0.04;37.88;99784.06;4929625;29;20052;-78
2022/01/19 11:49:39;;;;;;;6.78;3.28;;;;;;;-0.22;38.47;99781.72;4931349;29;20081;-79
2022/01/19 11:52:05;;;;;;;10.57;4.07;;;;;;;-0.54;39.38;99754.22;4930036;29;20063;-82
2022/01/19 11:54:34;;;;;;;8.48;3.30;;;;;;;-0.68;39.17;99740.94;4944385;28;20044;-81
2022/01/19 11:57:02;;;;;;;7.63;3.60;;;;;;;-0.54;38.99;99777.22;4938454;28;20150;-84
2022/01/19 11:59:46;;;;;;;8.77;3.30;;;;;;;-1.58;39.03;99611.72;4929328;28;20047;-80
2022/01/19 12:02:21;;;;;;;7.57;3.60;;;;;;;-0.80;39.96;99763.50;4928741;29;20095;-80
2022/01/19 12:04:50;;;;;;;8.80;3.40;;;;;;;-0.88;40.26;99764.91;4905196;29;20048;-81
2022/01/19 12:07:48;;;;;;;7.30;3.20;;;;;;;-0.94;40.14;99758.75;4928016;29;20059;-82
2022/01/19 12:10:21;;;;;;;6.72;3.30;;;;;;;-1.11;39.84;99736.81;4931733;29;20044;-81
2022/01/19 12:13:31;;;;;;;6.72;3.10;;;;;;;-0.88;40.50;99759.81;4932043;29;20552;-81
2022/01/19 12:16:20;;;;;;;4.13;2.70;;;;;;;-0.97;39.87;99753.53;4919121;29;20511;-81
2022/01/19 12:19:23;;;;;;;7.10;3.15;;;;;;;-1.84;40.25;99637.97;4913919;29;20047;-77
2022/01/19 12:22:12;;;;;;;9.00;3.00;;;;;;;-1.24;40.52;99763.59;4927548;29;20139;-79
2022/01/19 12:24:57;;;;;;;8.27;2.95;;;;;;;-1.73;40.67;99721.72;4914333;29;20051;-81
2022/01/19 12:27:34;;;;;;;5.43;2.80;;;;;;;-1.63;41.16;99761.22;4895676;29;20842;-82
2022/01/19 12:30:11;;;;;;;6.05;2.97;;;;;;;-2.04;41.65;99706.06;4893837;29;20544;-80
2022/01/19 12:32:43;;;;;;;5.25;2.50;;;;;;;-1.99;42.10;99709.69;4911230;29;20107;-80
2022/01/19 12:35:13;;;;;;;6.25;3.00;;;;;;;-1.85;42.23;99743.38;4929196;29;20163;-80
2022/01/19 12:37:50;;;;;;;8.50;3.03;;;;;;;-1.81;42.61;99754.59;4894071;29;20043;-80
2022/01/19 12:40:18;;;;;;;6.30;2.80;;;;;;;-1.82;42.41;99743.50;4903558;29;20056;-82
2022/01/19 12:42:51;;;;;;;5.60;2.83;;;;;;;-1.84;42.61;99731.50;4890282;29;20062;-81
2022/01/19 12:45:17;;;;;;;5.78;2.67;;;;;;;-1.76;42.68;99729.25;4927893;29;20439;-80
2022/01/19 12:48:07;;;;;;;5.00;2.78;;;;;;;-2.09;42.65;99691.38;4913434;29;20075;-83
2022/01/19 12:50:36;;;;;;;6.68;2.92;;;;;;;-2.16;42.98;99696.25;4944455;29;20111;-80
2022/01/19 12:53:07;;;;;;;8.98;3.28;;;;;;;-2.15;43.15;99725.16;4912921;29;20067;-80
2022/01/19 12:55:37;;;;;;;6.55;3.22;;;;;;;-2.23;43.20;99729.94;4938885;29;20095;-80
2022/01/19 12:58:21;;;;;;;10.07;4.88;;;;;;;-2.46;43.81;99699.25;4895059;29;20040;-81
2022/01/19 13:00:53;;;;;;;7.15;3.13;;;;;;;-2.34;44.15;99714.19;4931598;29;20054;-83
2022/01/19 13:03:28;;;;;;;5.68;2.92;;;;;;;-2.50;44.22;99693.97;4902506;29;20035;-80
2022/01/19 13:05:58;;;;;;;5.93;3.10;;;;;;;-2.44;43.97;99709.53;4930272;29;20046;-82
2022/01/19 13:12:16;;;;;;;5.88;3.15;;;;;;;-3.66;45.04;99550.72;4871270;29;20384;-81
2022/01/19 13:15:08;;;;;;;7.72;2.90;;;;;;;-3.71;44.34;99557.28;4831665;29;20053;-81
2022/01/19 13:17:51;;;;;;;7.22;3.05;;;;;;;-2.74;44.78;99735.44;4905662;29;20128;-80
2022/01/19 13:23:37;;;;;;;6.13;2.58;;;;;;;-4.60;45.74;99468.56;4904473;29;19974;-81
2022/01/19 13:26:26;;;;;;;6.47;2.60;;;;;;;-3.70;45.47;99589.56;4874965;29;20040;-80
2022/01/19 13:28:54;;;;;;;5.20;2.85;;;;;;;-2.98;45.46;99722.50;4892709;29;20054;-81
2022/01/19 13:31:23;;;;;;;7.00;3.08;;;;;;;-2.93;45.70;99737.19;4893052;29;20052;-82
2022/01/19 13:37:06;;;;;;;6.15;2.75;;;;;;;-3.19;45.70;99702.88;4912502;28;20028;-82